createdAt,value
2023-05-12T00:02:05.913Z,100894.91
2023-05-12T00:04:34.113Z,100895.22
2023-05-12T00:07:02.331Z,100898.81
2023-05-12T00:09:30.364Z,100896.23
2023-05-12T00:11:58.801Z,100897.05
2023-05-12T00:14:27.181Z,100898.24
2023-05-12T00:16:55.277Z,100899.09
2023-05-12T00:19:23.582Z,100898.39
2023-05-12T00:21:51.720Z,100899.71
2023-05-12T00:24:19.815Z,100897.80
2023-05-12T00:26:48.568Z,100895.84
2023-05-12T00:29:16.596Z,100899.23
2023-05-12T00:31:46.517Z,100897.23
2023-05-12T00:34:14.830Z,100901.47
2023-05-12T00:36:42.887Z,100901.89
2023-05-12T00:39:11.866Z,100903.15
2023-05-12T00:41:40.171Z,100908.17
2023-05-12T00:44:08.487Z,100910.98
2023-05-12T00:46:37.383Z,100906.36
2023-05-12T00:49:05.824Z,100910.90
2023-05-12T00:51:34.262Z,100913.37
2023-05-12T00:54:02.794Z,100915.32
2023-05-12T00:56:35.671Z,100915.55
2023-05-12T00:59:06.736Z,100917.17
2023-05-12T01:01:36.878Z,100917.39
2023-05-12T01:04:05.914Z,100922.08
2023-05-12T01:06:43.495Z,100923.65
2023-05-12T01:09:12.820Z,100927.61
2023-05-12T01:11:41.105Z,100923.94
2023-05-12T01:14:09.669Z,100931.48
2023-05-12T01:16:46.005Z,100933.09
2023-05-12T01:19:38.565Z,100937.08
2023-05-12T01:22:09.202Z,100939.70
2023-05-12T01:24:46.712Z,100940.23
2023-05-12T01:27:16.333Z,100936.94
2023-05-12T01:29:47.260Z,100938.84
2023-05-12T01:32:17.333Z,100938.40
2023-05-12T01:34:45.596Z,100938.66
2023-05-12T01:37:13.825Z,100934.65
2023-05-12T01:39:42.931Z,100934.23
2023-05-12T01:42:16.018Z,100944.09
2023-05-12T01:44:44.194Z,100942.02
2023-05-12T01:47:12.351Z,100946.69
2023-05-12T01:49:41.793Z,100949.25
2023-05-12T01:52:14.147Z,100942.92
2023-05-12T01:54:42.508Z,100944.17
2023-05-12T01:57:11.985Z,100947.85
2023-05-12T01:59:40.578Z,100945.27
2023-05-12T02:02:09.286Z,100946.60
2023-05-12T02:04:37.735Z,100950.17
2023-05-12T02:07:05.875Z,100949.11
2023-05-12T02:09:34.662Z,100949.55
2023-05-12T02:12:04.745Z,100947.66
2023-05-12T02:14:32.821Z,100951.45
2023-05-12T02:17:01.014Z,100954.40
2023-05-12T02:19:29.508Z,100951.59
2023-05-12T02:21:58.033Z,100950.98
2023-05-12T02:24:26.184Z,100950.47
2023-05-12T02:26:54.159Z,100949.74
2023-05-12T02:29:22.114Z,100952.80
2023-05-12T02:31:50.298Z,100952.93
2023-05-12T02:34:18.394Z,100958.01
2023-05-12T02:36:46.458Z,100961.02
2023-05-12T02:39:14.667Z,100962.70
2023-05-12T02:41:42.734Z,100962.59
2023-05-12T02:44:10.904Z,100963.17
2023-05-12T02:46:39.241Z,100961.81
2023-05-12T02:49:08.953Z,100964.24
2023-05-12T02:51:37.219Z,100966.20
2023-05-12T02:54:05.863Z,100966.00
2023-05-12T02:56:34.132Z,100970.52
2023-05-12T02:59:02.312Z,100967.38
2023-05-12T03:01:30.360Z,100971.23
2023-05-12T03:03:58.732Z,100974.75
2023-05-12T03:06:27.072Z,100977.30
2023-05-12T03:08:56.024Z,100968.98
2023-05-12T03:11:24.196Z,100969.77
2023-05-12T03:13:52.356Z,100970.73
2023-05-12T03:16:20.510Z,100969.52
2023-05-12T03:18:49.621Z,100964.58
2023-05-12T03:21:17.663Z,100958.27
2023-05-12T03:23:46.143Z,100963.39
2023-05-12T03:26:14.216Z,100964.23
2023-05-12T03:28:42.192Z,100962.91
2023-05-12T03:31:10.924Z,100966.27
2023-05-12T03:33:39.049Z,100969.86
2023-05-12T03:36:07.894Z,100969.36
2023-05-12T03:38:36.385Z,100973.34
2023-05-12T03:41:08.757Z,100969.33
2023-05-12T03:43:37.041Z,100973.27
2023-05-12T03:46:05.428Z,100974.33
2023-05-12T03:48:33.557Z,100976.48
2023-05-12T03:51:01.623Z,100971.92
2023-05-12T03:53:30.009Z,100977.30
2023-05-12T03:55:58.341Z,100977.93
2023-05-12T03:58:27.510Z,100982.98
2023-05-12T04:05:19.867Z,100984.31
2023-05-12T04:07:48.477Z,100987.23
2023-05-12T04:10:16.597Z,100984.77
2023-05-12T04:12:44.822Z,100988.67
2023-05-12T04:15:14.889Z,100988.38
2023-05-12T04:17:43.292Z,100989.42
2023-05-12T04:20:11.990Z,100993.45
2023-05-12T04:22:40.079Z,100996.98
2023-05-12T04:25:08.876Z,101000.70
2023-05-12T04:27:37.499Z,100995.88
2023-05-12T04:34:37.032Z,100985.45
2023-05-12T04:37:05.978Z,100985.61
2023-05-12T04:39:34.053Z,100985.68
2023-05-12T04:42:02.537Z,100986.90
2023-05-12T04:44:32.680Z,100988.15
2023-05-12T04:47:01.245Z,100988.52
2023-05-12T04:49:29.305Z,100979.73
2023-05-12T04:51:57.478Z,100980.60
2023-05-12T04:54:25.758Z,100978.45
2023-05-12T04:56:54.379Z,100981.56
2023-05-12T04:59:23.282Z,100980.61
2023-05-12T05:01:53.608Z,100981.05
2023-05-12T05:04:21.750Z,100985.48
2023-05-12T05:06:50.070Z,100983.27
2023-05-12T05:09:19.278Z,100983.26
2023-05-12T05:11:47.922Z,100989.34
2023-05-12T05:14:16.150Z,100989.45
2023-05-12T05:16:46.234Z,100990.66
2023-05-12T05:19:20.930Z,100990.19
2023-05-12T05:21:52.487Z,100988.73
2023-05-12T05:24:20.686Z,100990.81
2023-05-12T05:26:50.170Z,100999.73
2023-05-12T05:29:18.784Z,101000.52
2023-05-12T05:31:47.210Z,101004.81
2023-05-12T05:34:15.454Z,100996.61
2023-05-12T05:36:43.637Z,100998.45
2023-05-12T05:39:12.963Z,100998.94
2023-05-12T05:41:40.992Z,101005.27
2023-05-12T05:44:09.920Z,101005.20
2023-05-12T05:46:38.454Z,101004.80
2023-05-12T05:49:06.705Z,101001.14
2023-05-12T05:51:35.023Z,101005.99
2023-05-12T05:54:03.208Z,101006.52
2023-05-12T05:56:33.369Z,101005.98
2023-05-12T05:59:04.081Z,101007.71
2023-05-12T06:01:33.103Z,101011.23
2023-05-12T06:04:01.790Z,101012.61
2023-05-12T06:06:30.336Z,101014.53
2023-05-12T06:08:58.317Z,101016.67
2023-05-12T06:11:26.564Z,101019.20
2023-05-12T06:13:54.662Z,101017.06
2023-05-12T06:16:23.827Z,101019.17
2023-05-12T06:18:51.917Z,101021.80
2023-05-12T06:21:19.948Z,101022.35
2023-05-12T06:23:48.294Z,101013.23
2023-05-12T06:26:16.421Z,101017.25
2023-05-12T06:28:44.496Z,101016.84
2023-05-12T06:31:12.613Z,101017.33
2023-05-12T06:33:40.877Z,101014.95
2023-05-12T06:36:10.694Z,101016.39
2023-05-12T06:38:38.752Z,101018.27
2023-05-12T06:41:07.047Z,101021.90
2023-05-12T06:43:35.672Z,101020.64
2023-05-12T06:46:04.987Z,101025.57
2023-05-12T06:48:33.429Z,101022.30
2023-05-12T06:51:01.585Z,101022.59
2023-05-12T06:53:30.799Z,101020.75
2023-05-12T06:55:59.076Z,101022.38
2023-05-12T06:58:27.132Z,101020.29
2023-05-12T07:00:55.511Z,101021.77
2023-05-12T07:03:23.939Z,101018.58
2023-05-12T07:05:52.263Z,101020.70
2023-05-12T07:08:20.216Z,101022.30
2023-05-12T07:10:48.279Z,101021.71
2023-05-12T07:13:16.485Z,101018.04
2023-05-12T07:15:44.667Z,101022.96
2023-05-12T07:18:12.860Z,101021.49
2023-05-12T07:20:40.872Z,101020.48
2023-05-12T07:23:09.805Z,101019.95
2023-05-12T07:25:38.241Z,101015.40
2023-05-12T07:28:06.519Z,101014.59
2023-05-12T07:30:35.036Z,101021.66
2023-05-12T07:33:02.996Z,101019.16
2023-05-12T07:35:31.514Z,101019.56
2023-05-12T07:37:59.552Z,101017.55
2023-05-12T07:40:27.612Z,101023.88
2023-05-12T07:42:55.691Z,101015.98
2023-05-12T07:45:25.029Z,101019.91
2023-05-12T07:47:53.405Z,101018.15
2023-05-12T07:50:21.669Z,101028.33
2023-05-12T07:52:52.817Z,101015.82
2023-05-12T07:55:22.756Z,101025.94
2023-05-12T07:57:51.381Z,101022.77
2023-05-12T08:00:19.748Z,101014.20
2023-05-12T08:02:48.248Z,101026.82
2023-05-12T08:05:16.859Z,101019.38
2023-05-12T08:07:45.096Z,101022.60
2023-05-12T08:10:13.654Z,101019.23
2023-05-12T08:12:42.044Z,101024.10
2023-05-12T08:15:10.798Z,101022.39
2023-05-12T08:17:38.736Z,101029.27
2023-05-12T08:20:07.558Z,101032.61
2023-05-12T08:22:35.633Z,101022.51
2023-05-12T08:25:03.968Z,101024.83
2023-05-12T08:27:32.158Z,101027.23
2023-05-12T08:30:00.527Z,101021.17
2023-05-12T08:32:28.653Z,101023.89
2023-05-12T08:34:56.677Z,101024.36
2023-05-12T08:37:25.239Z,101016.09
2023-05-12T08:39:53.531Z,101021.19
2023-05-12T08:42:35.155Z,101020.61
2023-05-12T08:45:04.381Z,101019.75
2023-05-12T08:47:34.328Z,101037.77
2023-05-12T08:50:04.702Z,101035.40
2023-05-12T08:52:35.052Z,101023.98
2023-05-12T08:55:05.895Z,101017.65
2023-05-12T08:57:34.873Z,101019.52
2023-05-12T09:00:05.113Z,101018.41
2023-05-12T09:02:44.998Z,101012.11
2023-05-12T09:05:23.883Z,101021.53
2023-05-12T09:07:55.205Z,101015.64
2023-05-12T09:13:08.032Z,101022.95
2023-05-12T09:15:42.213Z,101016.80
2023-05-12T09:18:10.254Z,101017.77
2023-05-12T09:20:39.307Z,101017.20
2023-05-12T09:23:18.507Z,101018.52
2023-05-12T09:25:47.284Z,101019.84
2023-05-12T09:28:16.044Z,101025.64
2023-05-12T09:30:44.170Z,101015.30
2023-05-12T09:33:13.793Z,101017.95
2023-05-12T09:35:43.912Z,101014.67
2023-05-12T09:38:15.292Z,101013.93
2023-05-12T09:40:43.451Z,101010.95
2023-05-12T09:43:15.063Z,101008.36
2023-05-12T09:45:46.294Z,101007.32
2023-05-12T09:48:14.569Z,101011.52
2023-05-12T09:50:48.561Z,101011.36
2023-05-12T09:53:19.471Z,101005.11
2023-05-12T09:55:49.402Z,101002.36
2023-05-12T09:58:19.389Z,101006.90
2023-05-12T10:03:18.826Z,101014.13
2023-05-12T10:05:54.588Z,101008.59
2023-05-12T10:08:42.306Z,101007.14
2023-05-12T10:11:10.970Z,101006.30
2023-05-12T10:13:39.758Z,101001.76
2023-05-12T10:16:08.731Z,101007.55
2023-05-12T10:18:37.556Z,101012.16
2023-05-12T10:21:06.624Z,101006.11
2023-05-12T10:24:09.898Z,101000.86
2023-05-12T10:26:40.005Z,100994.25
2023-05-12T10:29:09.095Z,100998.45
2023-05-12T10:31:39.055Z,100988.44
2023-05-12T10:34:07.909Z,100987.40
2023-05-12T10:36:50.273Z,100984.99
2023-05-12T10:39:18.372Z,100991.45
2023-05-12T10:41:46.703Z,100984.51
2023-05-12T10:44:14.872Z,100992.32
2023-05-12T10:46:43.018Z,100990.73
2023-05-12T10:49:13.108Z,100988.98
2023-05-12T10:51:44.009Z,100969.99
2023-05-12T10:54:19.024Z,100983.81
2023-05-12T10:56:47.923Z,100990.64
2023-05-12T10:59:21.745Z,100989.02
2023-05-12T11:04:43.230Z,100981.94
2023-05-12T11:07:14.968Z,100989.50
2023-05-12T11:12:19.476Z,100976.20
2023-05-12T11:14:48.243Z,100970.93
2023-05-12T11:17:16.389Z,100973.25
2023-05-12T11:19:50.752Z,100972.67
2023-05-12T11:22:21.705Z,100977.92
2023-05-12T11:24:50.830Z,100974.30
2023-05-12T11:27:21.494Z,100975.44
2023-05-12T11:30:00.891Z,100976.00
2023-05-12T11:32:29.868Z,100973.02
2023-05-12T11:35:10.246Z,100969.70
2023-05-12T11:37:39.734Z,100973.05
2023-05-12T11:40:17.015Z,100961.34
2023-05-12T11:42:48.785Z,100975.36
2023-05-12T11:45:27.606Z,100976.39
2023-05-12T11:48:12.406Z,100973.93
2023-05-12T11:50:41.464Z,100979.96
2023-05-12T11:53:11.308Z,100983.41
2023-05-12T11:55:47.446Z,100975.82
2023-05-12T11:58:20.845Z,100969.29
2023-05-12T12:00:49.226Z,100971.25
2023-05-12T12:03:17.768Z,100971.95
2023-05-12T12:05:58.419Z,100983.38
2023-05-12T12:08:26.411Z,100978.94
2023-05-12T12:10:54.527Z,100972.99
2023-05-12T12:13:24.606Z,100969.30
2023-05-12T12:15:52.740Z,100971.77
2023-05-12T12:18:21.105Z,100967.54
2023-05-12T12:20:49.486Z,100967.14
2023-05-12T12:23:17.777Z,100963.08
2023-05-12T12:25:47.670Z,100973.20
2023-05-12T12:28:15.813Z,100966.95
2023-05-12T12:30:43.785Z,100964.45
2023-05-12T12:33:11.965Z,100957.97
2023-05-12T12:35:40.094Z,100964.46
2023-05-12T12:38:08.929Z,100960.74
2023-05-12T12:40:37.146Z,100966.16
2023-05-12T12:43:05.268Z,100958.23
2023-05-12T12:45:33.100Z,100954.89
2023-05-12T12:48:00.998Z,100945.89
2023-05-12T12:50:29.416Z,100952.98
2023-05-12T12:52:57.459Z,100948.02
2023-05-12T12:55:25.956Z,100945.50
2023-05-12T12:57:53.903Z,100941.98
2023-05-12T13:00:23.739Z,100941.84
2023-05-12T13:02:52.661Z,100945.31
2023-05-12T13:05:21.544Z,100956.17
2023-05-12T13:07:51.551Z,100950.29
2023-05-12T13:10:19.440Z,100952.40
2023-05-12T13:12:48.161Z,100939.85
2023-05-12T13:15:19.380Z,100935.09
2023-05-12T13:17:50.755Z,100936.09
2023-05-12T13:20:19.176Z,100934.88
2023-05-12T13:22:47.953Z,100932.27
2023-05-12T13:25:15.913Z,100922.78
2023-05-12T13:27:43.784Z,100924.61
2023-05-12T13:30:13.697Z,100932.41
2023-05-12T13:32:42.017Z,100929.71
2023-05-12T13:35:10.718Z,100934.63
2023-05-12T13:37:38.535Z,100927.59
2023-05-12T13:40:07.282Z,100927.29
2023-05-12T13:42:35.887Z,100923.85
2023-05-12T13:45:04.655Z,100924.97
2023-05-12T13:47:35.656Z,100921.63
2023-05-12T13:50:04.236Z,100915.57
2023-05-12T13:52:33.013Z,100916.70
2023-05-12T13:55:01.839Z,100923.35
2023-05-12T13:57:29.994Z,100914.78
2023-05-12T13:59:59.099Z,100928.51
2023-05-12T14:02:27.447Z,100917.79
2023-05-12T14:04:55.437Z,100911.09
2023-05-12T14:07:23.698Z,100913.61
2023-05-12T14:09:51.769Z,100911.03
2023-05-12T14:12:19.707Z,100909.69
2023-05-12T14:14:50.106Z,100908.83
2023-05-12T14:17:19.072Z,100914.26
2023-05-12T14:19:47.142Z,100916.66
2023-05-12T14:22:25.361Z,100913.09
2023-05-12T14:24:55.854Z,100909.19
2023-05-12T14:27:24.307Z,100907.35
2023-05-12T14:29:52.176Z,100916.39
2023-05-12T14:32:20.276Z,100921.67
2023-05-12T14:34:48.357Z,100916.13
2023-05-12T14:37:16.497Z,100910.42
2023-05-12T14:39:44.461Z,100905.86
2023-05-12T14:42:12.365Z,100913.11
2023-05-12T14:44:40.317Z,100916.86
2023-05-12T14:47:09.249Z,100919.26
2023-05-12T14:49:37.639Z,100913.04
2023-05-12T14:52:05.812Z,100908.59
2023-05-12T14:54:34.529Z,100905.98
2023-05-12T14:57:03.781Z,100906.93
2023-05-12T14:59:32.025Z,100907.08
2023-05-12T15:02:00.134Z,100903.48
2023-05-12T15:04:28.104Z,100908.02
2023-05-12T15:06:56.174Z,100907.38
2023-05-12T15:09:30.026Z,100912.23
2023-05-12T15:12:04.067Z,100912.52
2023-05-12T15:14:32.009Z,100916.56
2023-05-12T15:16:59.864Z,100912.64
2023-05-12T15:19:28.018Z,100916.49
2023-05-12T15:21:55.872Z,100909.20
2023-05-12T15:24:23.928Z,100909.73
2023-05-12T15:26:52.274Z,100902.21
2023-05-12T15:29:20.939Z,100904.61
2023-05-12T15:31:49.610Z,100901.71
2023-05-12T15:34:17.656Z,100899.69
2023-05-12T15:36:46.003Z,100909.05
2023-05-12T15:39:16.017Z,100900.06
2023-05-12T15:41:45.656Z,100900.23
2023-05-12T15:44:13.834Z,100898.55
2023-05-12T15:46:43.027Z,100899.98
2023-05-12T15:49:12.138Z,100900.48
2023-05-12T15:51:40.387Z,100897.77
2023-05-12T15:54:09.476Z,100897.84
2023-05-12T15:56:38.914Z,100900.10
2023-05-12T15:59:07.773Z,100900.65
2023-05-12T16:01:36.106Z,100896.75
2023-05-12T16:04:04.241Z,100892.88
2023-05-12T16:06:32.624Z,100894.88
2023-05-12T16:09:01.969Z,100895.38
2023-05-12T16:11:30.074Z,100893.33
2023-05-12T16:13:58.260Z,100888.86
2023-05-12T16:16:26.357Z,100903.81
2023-05-12T16:18:55.261Z,100904.08
2023-05-12T16:21:23.657Z,100900.84
2023-05-12T16:23:51.654Z,100905.58
2023-05-12T16:26:19.527Z,100902.05
2023-05-12T16:28:47.700Z,100903.63
2023-05-12T16:31:18.675Z,100904.19
2023-05-12T16:33:48.102Z,100904.73
2023-05-12T16:36:19.651Z,100898.67
2023-05-12T16:38:47.996Z,100904.24
2023-05-12T16:41:16.539Z,100902.80
2023-05-12T16:43:44.830Z,100904.60
2023-05-12T16:46:12.926Z,100906.02
2023-05-12T16:48:41.296Z,100909.43
2023-05-12T16:51:11.655Z,100917.25
2023-05-12T16:53:41.317Z,100923.42
2023-05-12T16:56:09.800Z,100922.45
2023-05-12T16:58:37.867Z,100924.33
2023-05-12T17:01:06.142Z,100929.35
2023-05-12T17:03:59.471Z,100925.23
2023-05-12T17:06:27.883Z,100926.45
2023-05-12T17:08:55.912Z,100928.36
2023-05-12T17:11:24.854Z,100925.65
2023-05-12T17:13:53.726Z,100927.45
2023-05-12T17:16:21.832Z,100926.48
2023-05-12T17:21:22.654Z,100924.65
2023-05-12T17:23:51.668Z,100923.38
2023-05-12T17:26:20.150Z,100927.29
2023-05-12T17:28:48.202Z,100929.82
2023-05-12T17:31:16.352Z,100932.76
2023-05-12T17:33:44.484Z,100932.88
2023-05-12T17:36:13.324Z,100935.27
2023-05-12T17:38:41.649Z,100935.05
2023-05-12T17:41:10.394Z,100934.09
2023-05-12T17:43:38.830Z,100930.92
2023-05-12T17:46:08.094Z,100934.17
2023-05-12T17:48:36.469Z,100934.14
2023-05-12T17:51:04.898Z,100937.79
2023-05-12T17:53:33.462Z,100937.92
2023-05-12T17:56:02.020Z,100940.20
2023-05-12T17:58:30.252Z,100938.26
2023-05-12T18:00:58.479Z,100939.65
2023-05-12T18:03:26.583Z,100944.50
2023-05-12T18:05:54.577Z,100946.20
2023-05-12T18:08:22.896Z,100947.58
2023-05-12T18:10:51.416Z,100950.33
2023-05-12T18:13:20.019Z,100952.05
2023-05-12T18:15:50.251Z,100958.88
2023-05-12T18:18:18.761Z,100960.13
2023-05-12T18:20:46.811Z,100962.91
2023-05-12T18:23:15.109Z,100959.99
2023-05-12T18:25:43.240Z,100964.55
2023-05-12T18:28:11.623Z,100970.49
2023-05-12T18:30:39.992Z,100974.67
2023-05-12T18:33:08.291Z,100972.77
2023-05-12T18:35:37.409Z,100982.55
2023-05-12T18:38:05.710Z,100981.30
2023-05-12T18:40:35.149Z,100982.16
2023-05-12T18:43:03.102Z,100983.66
2023-05-12T18:45:31.173Z,100985.86
2023-05-12T18:47:59.400Z,100988.74
2023-05-12T18:50:27.673Z,100987.95
2023-05-12T18:52:55.787Z,100987.31
2023-05-12T18:55:25.032Z,100987.19
2023-05-12T18:57:55.808Z,100986.52
2023-05-12T19:04:38.346Z,100995.52
2023-05-12T19:07:10.053Z,100999.14
2023-05-12T19:09:41.478Z,100996.86
2023-05-12T19:12:11.819Z,100997.68
2023-05-12T19:14:40.603Z,101001.95
2023-05-12T19:17:08.913Z,101005.69
2023-05-12T19:19:37.409Z,101008.55
2023-05-12T19:22:05.835Z,101010.38
2023-05-12T19:24:34.825Z,101010.44
2023-05-12T19:27:04.106Z,101015.52
2023-05-12T19:29:33.023Z,101016.09
2023-05-12T19:32:01.063Z,101016.15
2023-05-12T19:34:29.856Z,101018.80
2023-05-12T19:37:00.910Z,101015.21
2023-05-12T19:39:29.233Z,101016.27
2023-05-12T19:41:57.819Z,101019.04
2023-05-12T19:44:25.821Z,101020.27
2023-05-12T19:46:54.854Z,101023.25
2023-05-12T19:49:24.177Z,101021.19
2023-05-12T19:51:52.188Z,101019.30
2023-05-12T19:54:20.365Z,101023.98
2023-05-12T19:56:48.348Z,101025.86
2023-05-12T19:59:16.515Z,101024.62
2023-05-12T20:01:45.553Z,101029.63
2023-05-12T20:04:13.883Z,101031.03
2023-05-12T20:06:42.724Z,101029.67
2023-05-12T20:09:11.571Z,101027.43
2023-05-12T20:11:39.698Z,101033.34
2023-05-12T20:14:07.788Z,101029.39
2023-05-12T20:16:36.464Z,101031.66
2023-05-12T20:19:04.801Z,101030.84
2023-05-12T20:21:32.781Z,101031.55
2023-05-12T20:24:00.932Z,101030.55
2023-05-12T20:26:28.942Z,101033.14
2023-05-12T20:28:57.090Z,101033.69
2023-05-12T20:31:25.684Z,101027.31
2023-05-12T20:33:55.317Z,101026.86
2023-05-12T20:36:23.556Z,101030.83
2023-05-12T20:38:51.518Z,101028.98
2023-05-12T20:41:19.531Z,101030.40
2023-05-12T20:43:47.950Z,101031.98
2023-05-12T20:46:16.275Z,101032.35
2023-05-12T20:48:44.602Z,101030.98
2023-05-12T20:51:14.522Z,101031.17
2023-05-12T20:53:42.540Z,101032.58
2023-05-12T20:56:10.718Z,101036.61
2023-05-12T20:58:38.974Z,101037.00
2023-05-12T21:01:07.203Z,101036.73
2023-05-12T21:03:35.679Z,101042.48
2023-05-12T21:06:05.793Z,101046.63
2023-05-12T21:08:34.446Z,101046.70
2023-05-12T21:11:02.976Z,101042.64
2023-05-12T21:13:31.137Z,101043.05
2023-05-12T21:15:59.725Z,101040.17
2023-05-12T21:18:27.831Z,101044.25
2023-05-12T21:20:56.842Z,101044.19
2023-05-12T21:23:25.158Z,101047.38
2023-05-12T21:25:54.167Z,101048.52
2023-05-12T21:28:22.177Z,101049.35
2023-05-12T21:30:50.583Z,101050.48
2023-05-12T21:33:18.775Z,101054.17
2023-05-12T21:35:46.956Z,101057.36
2023-05-12T21:38:14.895Z,101055.03
2023-05-12T21:40:42.864Z,101053.52
2023-05-12T21:43:11.823Z,101060.58
2023-05-12T21:45:39.972Z,101055.82
2023-05-12T21:48:08.234Z,101061.09
2023-05-12T21:50:36.531Z,101063.38
2023-05-12T21:53:04.594Z,101066.22
2023-05-12T21:55:32.670Z,101067.65
2023-05-12T21:58:00.762Z,101068.06
2023-05-12T22:00:28.897Z,101067.96
2023-05-12T22:02:56.938Z,101069.40
2023-05-12T22:05:25.962Z,101065.89
2023-05-12T22:07:54.042Z,101068.30
2023-05-12T22:10:22.225Z,101063.32
2023-05-12T22:12:50.812Z,101061.41
2023-05-12T22:15:20.715Z,101060.35
2023-05-12T22:17:49.650Z,101062.08
2023-05-12T22:20:19.251Z,101061.17
2023-05-12T22:22:47.503Z,101059.35
2023-05-12T22:25:16.119Z,101061.15
2023-05-12T22:27:44.176Z,101060.36
2023-05-12T22:30:12.629Z,101060.67
2023-05-12T22:32:41.168Z,101057.48
2023-05-12T22:35:10.089Z,101058.91
2023-05-12T22:37:38.510Z,101058.67
2023-05-12T22:40:09.705Z,101061.50
2023-05-12T22:42:37.975Z,101060.02
2023-05-12T22:45:07.007Z,101058.55
2023-05-12T22:47:35.256Z,101060.37
2023-05-12T22:50:03.636Z,101059.40
2023-05-12T22:52:31.721Z,101060.82
2023-05-12T22:54:59.916Z,101060.00
2023-05-12T22:57:27.944Z,101061.23
2023-05-12T22:59:56.072Z,101059.05
2023-05-12T23:02:27.311Z,101059.94
2023-05-12T23:04:55.541Z,101061.20
2023-05-12T23:07:23.802Z,101060.89
2023-05-12T23:09:51.985Z,101060.92
2023-05-12T23:12:20.216Z,101061.98
2023-05-12T23:14:48.200Z,101068.44
2023-05-12T23:17:16.296Z,101069.08
2023-05-12T23:19:44.499Z,101065.25
2023-05-12T23:22:12.596Z,101067.07
2023-05-12T23:24:40.868Z,101068.20
2023-05-12T23:27:08.990Z,101069.63
2023-05-12T23:29:37.364Z,101067.31
2023-05-12T23:32:05.918Z,101070.48
2023-05-12T23:34:34.410Z,101069.16
2023-05-12T23:37:02.669Z,101066.68
2023-05-12T23:39:30.881Z,101064.36
2023-05-12T23:41:59.460Z,101059.09
2023-05-12T23:44:28.172Z,101061.25
2023-05-12T23:46:56.377Z,101061.87
2023-05-12T23:49:26.753Z,101064.23
2023-05-12T23:51:55.187Z,101063.48
2023-05-12T23:54:23.566Z,101059.84
2023-05-12T23:56:51.984Z,101062.04
2023-05-12T23:59:21.267Z,101061.16
